Ida Theresa — V7RQ9 — position and weather

sailwx.info

Track history (hours):
 
Tides and Currents Weather Stations Pressure Air Temp Water Temp Dewpoint Dewpoint Depression Visibility Wind Speed Wind Dir Waves Ship Positions

Ida Theresa

Last reported at 2014-Aug-18 02:33 UTC. Time now 2014-Aug-21 12:11 UTC.
Position N 37°14' E 025°51'.

Length 121 m; draft 8.7 m.

Type: Tanker. MMSI: 538090386.

Date/timePositionNaut miles runAvg speedWind from/ knotsBaromVisibWave heightAir tempDewpointWater temp
2014-Aug-18 02:33N 37°14' E 025°51'1212.3
2014-Aug-18 01:33N 37°26' E 025°46'235 9.7
2014-Aug-17 01:25N 40°50' E 028°16'2212.0
2014-Aug-16 23:33N 40°53' E 028°45'6 1.2
2014-Aug-16 18:23N 40°56' E 028°52'0 0.1
2014-Aug-16 17:23N 40°56' E 028°52'0 0.0
2014-Aug-16 16:31N 40°56' E 028°52'6 6.4
2014-Aug-16 15:32N 40°59' E 028°59'18 4.5
2014-Aug-16 11:33N 41°17' E 028°60'0 0.0
2014-Aug-16 10:06N 41°17' E 028°60'0 0.0
2014-Aug-16 09:33N 41°17' E 028°60'5 1.1
2014-Aug-16 05:06N 41°21' E 029°04'2211.6
2014-Aug-16 03:13N 41°41' E 029°14'23511.9
2014-Aug-15 07:31N 45°31' E 030°21'1211.9
2014-Aug-15 06:32N 45°41' E 030°30'1111.8
2014-Aug-15 05:34N 45°50' E 030°39'1211.7
2014-Aug-15 04:33N 46°00' E 030°48'1211.5
2014-Aug-15 03:33N 46°11' E 030°54'1211.6
2014-Aug-15 02:33N 46°23' E 030°55'1110.5
2014-Aug-15 01:33N 46°33' E 030°58'6 5.8
2014-Aug-15 00:33N 46°39' E 031°01'1 0.8
2014-Aug-14 23:32N 46°39' E 031°01'0 0.0
2014-Aug-14 22:32N 46°39' E 031°01'0 0.0
2014-Aug-14 20:08N 46°39' E 031°01'0 0.0
2014-Aug-14 19:32N 46°39' E 031°01'0 0.0
2014-Aug-13 17:25N 46°39' E 031°01'0 0.0
2014-Aug-13 02:25N 46°39' E 031°01'0 0.0
2014-Aug-13 00:25N 46°39' E 031°01'0 0.0
2014-Aug-12 23:25N 46°39' E 031°01'0 0.0
2014-Aug-12 22:33N 46°39' E 031°01'0 0.0
2014-Aug-12 21:33N 46°39' E 031°01'0 0.0
2014-Aug-12 20:33N 46°39' E 031°01'0 0.0
2014-Aug-12 19:33N 46°39' E 031°01'3 2.8
2014-Aug-12 18:33N 46°37' E 031°01'6 5.9
2014-Aug-12 17:33N 46°31' E 030°57'5 5.4
2014-Aug-12 16:33N 46°26' E 030°58'2 2.4
2014-Aug-12 15:34N 46°24' E 030°57'5 4.6
2014-Aug-12 14:33N 46°19' E 030°57'6 6.0
2014-Aug-12 13:34N 46°13' E 030°57'9610.7
2014-Aug-12 04:33N 44°46' E 030°00'1312.7
2014-Aug-12 03:33N 44°33' E 029°57'1312.9
2014-Aug-12 02:31N 44°20' E 029°55'144 4.7
2014-Aug-10 20:07N 41°60' E 029°10'  
Track history (hours):
 
Tides and Currents Weather Stations Pressure Air Temp Water Temp Dewpoint Dewpoint Depression Visibility Wind Speed Wind Dir Waves Ship Positions

Ida Theresa

Last reported at 2014-Aug-18 02:33 UTC. Time now 2014-Aug-21 12:11 UTC.
Position N 37°14' E 025°51'.

Length 121 m; draft 8.7 m.

Type: Tanker. MMSI: 538090386.

Date/timePositionNaut miles runAvg speedWind from/ knotsBaromVisibWave heightAir tempDewpointWater temp
2014-Aug-18 02:33N 37°14' E 025°51'1212.3
2014-Aug-18 01:33N 37°26' E 025°46'235 9.7
2014-Aug-17 01:25N 40°50' E 028°16'2212.0
2014-Aug-16 23:33N 40°53' E 028°45'6 1.2
2014-Aug-16 18:23N 40°56' E 028°52'0 0.1
2014-Aug-16 17:23N 40°56' E 028°52'0 0.0
2014-Aug-16 16:31N 40°56' E 028°52'6 6.4
2014-Aug-16 15:32N 40°59' E 028°59'18 4.5
2014-Aug-16 11:33N 41°17' E 028°60'0 0.0
2014-Aug-16 10:06N 41°17' E 028°60'0 0.0
2014-Aug-16 09:33N 41°17' E 028°60'5 1.1
2014-Aug-16 05:06N 41°21' E 029°04'2211.6
2014-Aug-16 03:13N 41°41' E 029°14'23511.9
2014-Aug-15 07:31N 45°31' E 030°21'1211.9
2014-Aug-15 06:32N 45°41' E 030°30'1111.8
2014-Aug-15 05:34N 45°50' E 030°39'1211.7
2014-Aug-15 04:33N 46°00' E 030°48'1211.5
2014-Aug-15 03:33N 46°11' E 030°54'1211.6
2014-Aug-15 02:33N 46°23' E 030°55'1110.5
2014-Aug-15 01:33N 46°33' E 030°58'6 5.8
2014-Aug-15 00:33N 46°39' E 031°01'1 0.8
2014-Aug-14 23:32N 46°39' E 031°01'0 0.0
2014-Aug-14 22:32N 46°39' E 031°01'0 0.0
2014-Aug-14 20:08N 46°39' E 031°01'0 0.0
2014-Aug-14 19:32N 46°39' E 031°01'0 0.0
2014-Aug-13 17:25N 46°39' E 031°01'0 0.0
2014-Aug-13 02:25N 46°39' E 031°01'0 0.0
2014-Aug-13 00:25N 46°39' E 031°01'0 0.0
2014-Aug-12 23:25N 46°39' E 031°01'0 0.0
2014-Aug-12 22:33N 46°39' E 031°01'0 0.0
2014-Aug-12 21:33N 46°39' E 031°01'0 0.0
2014-Aug-12 20:33N 46°39' E 031°01'0 0.0
2014-Aug-12 19:33N 46°39' E 031°01'3 2.8
2014-Aug-12 18:33N 46°37' E 031°01'6 5.9
2014-Aug-12 17:33N 46°31' E 030°57'5 5.4
2014-Aug-12 16:33N 46°26' E 030°58'2 2.4
2014-Aug-12 15:34N 46°24' E 030°57'5 4.6
2014-Aug-12 14:33N 46°19' E 030°57'6 6.0
2014-Aug-12 13:34N 46°13' E 030°57'9610.7
2014-Aug-12 04:33N 44°46' E 030°00'1312.7
2014-Aug-12 03:33N 44°33' E 029°57'1312.9
2014-Aug-12 02:31N 44°20' E 029°55'144 4.7
2014-Aug-10 20:07N 41°60' E 029°10'  

Dump ship's entire track history